sensor_id;sensor_type;location;lat;lon;timestamp;P1;P2;P0
55485;PMS5003;71262;-25.924;28.194;2023-11-21T00:02:03;2;2;
55485;PMS5003;71262;-25.924;28.194;2023-11-21T00:04:28;3;2;
55485;PMS5003;71262;-25.924;28.194;2023-11-21T00:06:53;2;2;
55485;PMS5003;71262;-25.924;28.194;2023-11-21T00:09:18;3;3;
55485;PMS5003;71262;-25.924;28.194;2023-11-21T00:11:43;4;3;
55485;PMS5003;71262;-25.924;28.194;2023-11-21T00:14:09;3;2;
55485;PMS5003;71262;-25.924;28.194;2023-11-21T00:16:33;5;4;
55485;PMS5003;71262;-25.924;28.194;2023-11-21T00:18:58;3;2;
55485;PMS5003;71262;-25.924;28.194;2023-11-21T00:21:24;3;3;
55485;PMS5003;71262;-25.924;28.194;2023-11-21T00:23:49;4;4;
55485;PMS5003;71262;-25.924;28.194;2023-11-21T00:26:14;3;3;
55485;PMS5003;71262;-25.924;28.194;2023-11-21T00:28:39;3;3;
55485;PMS5003;71262;-25.924;28.194;2023-11-21T00:31:04;3;3;
55485;PMS5003;71262;-25.924;28.194;2023-11-21T00:33:29;4;4;
55485;PMS5003;71262;-25.924;28.194;2023-11-21T00:35:54;1;1;
55485;PMS5003;71262;-25.924;28.194;2023-11-21T00:38:19;1;1;
55485;PMS5003;71262;-25.924;28.194;2023-11-21T00:40:44;3;3;
55485;PMS5003;71262;-25.924;28.194;2023-11-21T00:43:09;2;2;
55485;PMS5003;71262;-25.924;28.194;2023-11-21T00:45:34;2;2;
55485;PMS5003;71262;-25.924;28.194;2023-11-21T00:47:59;3;3;
55485;PMS5003;71262;-25.924;28.194;2023-11-21T00:50:24;4;3;
55485;PMS5003;71262;-25.924;28.194;2023-11-21T00:52:49;2;2;
55485;PMS5003;71262;-25.924;28.194;2023-11-21T00:55:14;3;3;
55485;PMS5003;71262;-25.924;28.194;2023-11-21T00:57:40;2;2;
55485;PMS5003;71262;-25.924;28.194;2023-11-21T01:00:05;3;3;
55485;PMS5003;71262;-25.924;28.194;2023-11-21T01:02:30;2;2;
55485;PMS5003;71262;-25.924;28.194;2023-11-21T01:04:55;2;2;
55485;PMS5003;71262;-25.924;28.194;2023-11-21T01:07:20;2;2;
55485;PMS5003;71262;-25.924;28.194;2023-11-21T01:09:45;2;2;
55485;PMS5003;71262;-25.924;28.194;2023-11-21T01:12:10;3;2;
55485;PMS5003;71262;-25.924;28.194;2023-11-21T01:14:35;3;3;
55485;PMS5003;71262;-25.924;28.194;2023-11-21T01:17:00;2;2;
55485;PMS5003;71262;-25.924;28.194;2023-11-21T01:19:25;3;2;
55485;PMS5003;71262;-25.924;28.194;2023-11-21T01:21:50;2;2;
55485;PMS5003;71262;-25.924;28.194;2023-11-21T01:24:15;3;3;
55485;PMS5003;71262;-25.924;28.194;2023-11-21T01:26:40;4;3;
55485;PMS5003;71262;-25.924;28.194;2023-11-21T01:29:05;2;2;
55485;PMS5003;71262;-25.924;28.194;2023-11-21T01:31:30;3;3;
55485;PMS5003;71262;-25.924;28.194;2023-11-21T01:33:56;2;2;
55485;PMS5003;71262;-25.924;28.194;2023-11-21T01:36:21;2;2;
55485;PMS5003;71262;-25.924;28.194;2023-11-21T01:38:46;1;1;
55485;PMS5003;71262;-25.924;28.194;2023-11-21T01:41:11;2;2;
55485;PMS5003;71262;-25.924;28.194;2023-11-21T01:43:36;2;2;
55485;PMS5003;71262;-25.924;28.194;2023-11-21T01:46:01;2;1;
55485;PMS5003;71262;-25.924;28.194;2023-11-21T01:48:26;2;2;
55485;PMS5003;71262;-25.924;28.194;2023-11-21T01:50:51;4;3;
55485;PMS5003;71262;-25.924;28.194;2023-11-21T01:53:17;72;40;
55485;PMS5003;71262;-25.924;28.194;2023-11-21T01:55:42;13;10;
55485;PMS5003;71262;-25.924;28.194;2023-11-21T01:58:07;3;2;
55485;PMS5003;71262;-25.924;28.194;2023-11-21T02:00:32;6;4;
55485;PMS5003;71262;-25.924;28.194;2023-11-21T02:02:57;3;2;
55485;PMS5003;71262;-25.924;28.194;2023-11-21T02:05:22;1;1;
55485;PMS5003;71262;-25.924;28.194;2023-11-21T02:07:47;3;3;
55485;PMS5003;71262;-25.924;28.194;2023-11-21T02:10:12;40;33;
55485;PMS5003;71262;-25.924;28.194;2023-11-21T02:12:38;49;34;
55485;PMS5003;71262;-25.924;28.194;2023-11-21T02:15:03;19;7;
55485;PMS5003;71262;-25.924;28.194;2023-11-21T02:17:28;3;3;
55485;PMS5003;71262;-25.924;28.194;2023-11-21T02:19:54;3;3;
55485;PMS5003;71262;-25.924;28.194;2023-11-21T02:22:18;2;1;
55485;PMS5003;71262;-25.924;28.194;2023-11-21T02:24:45;1;1;
55485;PMS5003;71262;-25.924;28.194;2023-11-21T02:27:09;2;2;
55485;PMS5003;71262;-25.924;28.194;2023-11-21T02:29:34;1;1;
55485;PMS5003;71262;-25.924;28.194;2023-11-21T02:31:59;3;2;
55485;PMS5003;71262;-25.924;28.194;2023-11-21T02:34:24;1;1;
55485;PMS5003;71262;-25.924;28.194;2023-11-21T02:36:49;0;0;
55485;PMS5003;71262;-25.924;28.194;2023-11-21T02:39:14;2;2;
55485;PMS5003;71262;-25.924;28.194;2023-11-21T02:41:39;0;0;
55485;PMS5003;71262;-25.924;28.194;2023-11-21T02:44:04;1;1;
55485;PMS5003;71262;-25.924;28.194;2023-11-21T02:46:29;1;1;
55485;PMS5003;71262;-25.924;28.194;2023-11-21T02:48:54;2;2;
55485;PMS5003;71262;-25.924;28.194;2023-11-21T02:51:19;1;1;
55485;PMS5003;71262;-25.924;28.194;2023-11-21T02:53:44;2;2;
55485;PMS5003;71262;-25.924;28.194;2023-11-21T02:56:09;2;2;
55485;PMS5003;71262;-25.924;28.194;2023-11-21T02:58:35;1;1;
55485;PMS5003;71262;-25.924;28.194;2023-11-21T03:00:59;1;1;
55485;PMS5003;71262;-25.924;28.194;2023-11-21T03:03:24;2;1;
55485;PMS5003;71262;-25.924;28.194;2023-11-21T03:05:50;2;2;
55485;PMS5003;71262;-25.924;28.194;2023-11-21T03:08:15;2;2;
55485;PMS5003;71262;-25.924;28.194;2023-11-21T03:10:40;1;1;
55485;PMS5003;71262;-25.924;28.194;2023-11-21T03:13:05;1;1;
55485;PMS5003;71262;-25.924;28.194;2023-11-21T03:15:30;0;0;
55485;PMS5003;71262;-25.924;28.194;2023-11-21T03:17:55;1;1;
55485;PMS5003;71262;-25.924;28.194;2023-11-21T03:20:20;3;2;
55485;PMS5003;71262;-25.924;28.194;2023-11-21T03:22:45;2;2;
55485;PMS5003;71262;-25.924;28.194;2023-11-21T03:25:10;2;1;
55485;PMS5003;71262;-25.924;28.194;2023-11-21T03:27:35;1;1;
55485;PMS5003;71262;-25.924;28.194;2023-11-21T03:30:00;2;2;
55485;PMS5003;71262;-25.924;28.194;2023-11-21T03:32:25;1;1;
55485;PMS5003;71262;-25.924;28.194;2023-11-21T03:34:54;2;2;
55485;PMS5003;71262;-25.924;28.194;2023-11-21T03:37:15;2;2;
55485;PMS5003;71262;-25.924;28.194;2023-11-21T03:39:40;3;2;
55485;PMS5003;71262;-25.924;28.194;2023-11-21T03:42:06;2;2;
55485;PMS5003;71262;-25.924;28.194;2023-11-21T03:44:31;2;1;
55485;PMS5003;71262;-25.924;28.194;2023-11-21T03:46:56;1;1;
55485;PMS5003;71262;-25.924;28.194;2023-11-21T03:49:21;2;2;
55485;PMS5003;71262;-25.924;28.194;2023-11-21T03:51:46;0;0;
55485;PMS5003;71262;-25.924;28.194;2023-11-21T03:54:11;0;0;
55485;PMS5003;71262;-25.924;28.194;2023-11-21T03:56:36;3;2;
55485;PMS5003;71262;-25.924;28.194;2023-11-21T03:59:01;0;0;
55485;PMS5003;71262;-25.924;28.194;2023-11-21T04:01:26;1;1;
55485;PMS5003;71262;-25.924;28.194;2023-11-21T04:03:51;1;1;
55485;PMS5003;71262;-25.924;28.194;2023-11-21T04:06:17;2;2;
55485;PMS5003;71262;-25.924;28.194;2023-11-21T04:08:41;2;2;
55485;PMS5003;71262;-25.924;28.194;2023-11-21T04:11:06;3;3;
55485;PMS5003;71262;-25.924;28.194;2023-11-21T04:13:31;2;2;
55485;PMS5003;71262;-25.924;28.194;2023-11-21T04:15:57;46;32;
55485;PMS5003;71262;-25.924;28.194;2023-11-21T04:18:22;36;21;
55485;PMS5003;71262;-25.924;28.194;2023-11-21T04:20:48;12;10;
55485;PMS5003;71262;-25.924;28.194;2023-11-21T04:23:13;29;19;
55485;PMS5003;71262;-25.924;28.194;2023-11-21T04:25:39;5;5;
55485;PMS5003;71262;-25.924;28.194;2023-11-21T04:28:03;2;2;
55485;PMS5003;71262;-25.924;28.194;2023-11-21T04:30:28;1;1;
55485;PMS5003;71262;-25.924;28.194;2023-11-21T04:32:53;2;2;
55485;PMS5003;71262;-25.924;28.194;2023-11-21T04:35:19;2;2;
55485;PMS5003;71262;-25.924;28.194;2023-11-21T04:37:44;3;3;
55485;PMS5003;71262;-25.924;28.194;2023-11-21T04:40:09;1;1;
55485;PMS5003;71262;-25.924;28.194;2023-11-21T04:42:34;5;4;
55485;PMS5003;71262;-25.924;28.194;2023-11-21T04:44:59;4;4;
55485;PMS5003;71262;-25.924;28.194;2023-11-21T04:47:24;2;2;
55485;PMS5003;71262;-25.924;28.194;2023-11-21T04:49:50;7;6;
55485;PMS5003;71262;-25.924;28.194;2023-11-21T04:52:15;5;4;
55485;PMS5003;71262;-25.924;28.194;2023-11-21T04:54:40;2;2;
55485;PMS5003;71262;-25.924;28.194;2023-11-21T04:57:06;3;2;
55485;PMS5003;71262;-25.924;28.194;2023-11-21T04:59:30;3;3;
55485;PMS5003;71262;-25.924;28.194;2023-11-21T05:01:55;6;5;
55485;PMS5003;71262;-25.924;28.194;2023-11-21T05:04:20;10;8;
55485;PMS5003;71262;-25.924;28.194;2023-11-21T05:06:45;2;2;
55485;PMS5003;71262;-25.924;28.194;2023-11-21T05:09:10;28;17;
55485;PMS5003;71262;-25.924;28.194;2023-11-21T05:11:36;31;25;
55485;PMS5003;71262;-25.924;28.194;2023-11-21T05:14:02;19;14;
55485;PMS5003;71262;-25.924;28.194;2023-11-21T05:16:27;5;5;
55485;PMS5003;71262;-25.924;28.194;2023-11-21T05:18:52;7;6;
55485;PMS5003;71262;-25.924;28.194;2023-11-21T05:21:18;14;13;
55485;PMS5003;71262;-25.924;28.194;2023-11-21T05:23:43;4;4;
55485;PMS5003;71262;-25.924;28.194;2023-11-21T05:26:08;4;4;
55485;PMS5003;71262;-25.924;28.194;2023-11-21T05:28:34;16;15;
55485;PMS5003;71262;-25.924;28.194;2023-11-21T05:30:59;9;8;
55485;PMS5003;71262;-25.924;28.194;2023-11-21T05:33:24;40;27;
55485;PMS5003;71262;-25.924;28.194;2023-11-21T05:35:50;31;25;
55485;PMS5003;71262;-25.924;28.194;2023-11-21T05:38:15;38;35;
55485;PMS5003;71262;-25.924;28.194;2023-11-21T05:40:40;6;6;
55485;PMS5003;71262;-25.924;28.194;2023-11-21T05:43:07;5;5;
55485;PMS5003;71262;-25.924;28.194;2023-11-21T05:45:30;6;4;
55485;PMS5003;71262;-25.924;28.194;2023-11-21T05:47:56;7;7;
55485;PMS5003;71262;-25.924;28.194;2023-11-21T05:50:21;6;4;
55485;PMS5003;71262;-25.924;28.194;2023-11-21T05:52:46;3;2;
55485;PMS5003;71262;-25.924;28.194;2023-11-21T05:55:11;7;5;
55485;PMS5003;71262;-25.924;28.194;2023-11-21T05:57:36;5;4;
55485;PMS5003;71262;-25.924;28.194;2023-11-21T06:00:02;4;3;
55485;PMS5003;71262;-25.924;28.194;2023-11-21T06:02:26;7;5;
55485;PMS5003;71262;-25.924;28.194;2023-11-21T06:04:51;7;4;
55485;PMS5003;71262;-25.924;28.194;2023-11-21T06:07:16;3;3;
55485;PMS5003;71262;-25.924;28.194;2023-11-21T06:09:41;4;2;
55485;PMS5003;71262;-25.924;28.194;2023-11-21T06:12:06;6;4;
55485;PMS5003;71262;-25.924;28.194;2023-11-21T06:14:31;9;7;
55485;PMS5003;71262;-25.924;28.194;2023-11-21T06:16:56;19;12;
55485;PMS5003;71262;-25.924;28.194;2023-11-21T06:19:21;29;18;
55485;PMS5003;71262;-25.924;28.194;2023-11-21T06:21:47;15;11;
55485;PMS5003;71262;-25.924;28.194;2023-11-21T06:24:12;16;12;
55485;PMS5003;71262;-25.924;28.194;2023-11-21T06:26:38;11;8;
55485;PMS5003;71262;-25.924;28.194;2023-11-21T06:29:03;12;9;
55485;PMS5003;71262;-25.924;28.194;2023-11-21T06:31:29;13;11;
55485;PMS5003;71262;-25.924;28.194;2023-11-21T06:33:54;14;9;
55485;PMS5003;71262;-25.924;28.194;2023-11-21T06:36:19;11;7;
55485;PMS5003;71262;-25.924;28.194;2023-11-21T06:38:44;6;6;
55485;PMS5003;71262;-25.924;28.194;2023-11-21T06:41:09;5;5;
55485;PMS5003;71262;-25.924;28.194;2023-11-21T06:43:34;5;4;
55485;PMS5003;71262;-25.924;28.194;2023-11-21T06:46:00;7;5;
55485;PMS5003;71262;-25.924;28.194;2023-11-21T06:48:25;5;5;
55485;PMS5003;71262;-25.924;28.194;2023-11-21T06:50:50;6;5;
55485;PMS5003;71262;-25.924;28.194;2023-11-21T06:53:15;5;3;
55485;PMS5003;71262;-25.924;28.194;2023-11-21T06:55:40;5;4;
55485;PMS5003;71262;-25.924;28.194;2023-11-21T06:58:05;4;4;
55485;PMS5003;71262;-25.924;28.194;2023-11-21T07:00:30;6;6;
55485;PMS5003;71262;-25.924;28.194;2023-11-21T07:02:55;5;4;
55485;PMS5003;71262;-25.924;28.194;2023-11-21T07:05:21;3;3;
55485;PMS5003;71262;-25.924;28.194;2023-11-21T07:07:45;5;4;
55485;PMS5003;71262;-25.924;28.194;2023-11-21T07:10:10;7;4;
55485;PMS5003;71262;-25.924;28.194;2023-11-21T07:12:35;4;3;
55485;PMS5003;71262;-25.924;28.194;2023-11-21T07:15:00;4;4;
55485;PMS5003;71262;-25.924;28.194;2023-11-21T07:17:25;3;3;
55485;PMS5003;71262;-25.924;28.194;2023-11-21T07:19:50;5;4;
55485;PMS5003;71262;-25.924;28.194;2023-11-21T07:22:15;3;3;
55485;PMS5003;71262;-25.924;28.194;2023-11-21T07:24:41;3;3;
55485;PMS5003;71262;-25.924;28.194;2023-11-21T07:27:06;2;2;
55485;PMS5003;71262;-25.924;28.194;2023-11-21T07:29:31;5;5;
55485;PMS5003;71262;-25.924;28.194;2023-11-21T07:31:56;3;3;
55485;PMS5003;71262;-25.924;28.194;2023-11-21T07:34:21;2;2;
55485;PMS5003;71262;-25.924;28.194;2023-11-21T07:36:46;3;3;
55485;PMS5003;71262;-25.924;28.194;2023-11-21T07:39:11;4;3;
55485;PMS5003;71262;-25.924;28.194;2023-11-21T07:41:36;4;4;
55485;PMS5003;71262;-25.924;28.194;2023-11-21T07:44:01;4;4;
55485;PMS5003;71262;-25.924;28.194;2023-11-21T07:46:26;6;6;
55485;PMS5003;71262;-25.924;28.194;2023-11-21T07:48:51;6;5;
55485;PMS5003;71262;-25.924;28.194;2023-11-21T07:51:16;8;5;
55485;PMS5003;71262;-25.924;28.194;2023-11-21T07:53:42;5;5;
55485;PMS5003;71262;-25.924;28.194;2023-11-21T07:56:08;5;4;
55485;PMS5003;71262;-25.924;28.194;2023-11-21T07:58:36;3;3;
55485;PMS5003;71262;-25.924;28.194;2023-11-21T08:01:02;8;8;
55485;PMS5003;71262;-25.924;28.194;2023-11-21T08:03:26;3;3;
55485;PMS5003;71262;-25.924;28.194;2023-11-21T08:05:51;5;4;
55485;PMS5003;71262;-25.924;28.194;2023-11-21T08:08:16;5;4;
55485;PMS5003;71262;-25.924;28.194;2023-11-21T08:10:41;6;6;
55485;PMS5003;71262;-25.924;28.194;2023-11-21T08:13:06;12;11;
55485;PMS5003;71262;-25.924;28.194;2023-11-21T08:15:31;24;24;
55485;PMS5003;71262;-25.924;28.194;2023-11-21T08:21:08;9;9;
55485;PMS5003;71262;-25.924;28.194;2023-11-21T08:23:32;15;15;
55485;PMS5003;71262;-25.924;28.194;2023-11-21T08:25:57;15;15;
55485;PMS5003;71262;-25.924;28.194;2023-11-21T08:28:22;15;15;
55485;PMS5003;71262;-25.924;28.194;2023-11-21T08:30:48;14;14;
55485;PMS5003;71262;-25.924;28.194;2023-11-21T08:33:13;15;15;
55485;PMS5003;71262;-25.924;28.194;2023-11-21T08:35:38;12;12;
55485;PMS5003;71262;-25.924;28.194;2023-11-21T08:38:03;15;15;
55485;PMS5003;71262;-25.924;28.194;2023-11-21T08:40:28;10;9;
55485;PMS5003;71262;-25.924;28.194;2023-11-21T08:42:53;15;15;
55485;PMS5003;71262;-25.924;28.194;2023-11-21T08:45:18;8;7;
55485;PMS5003;71262;-25.924;28.194;2023-11-21T08:47:43;8;8;
55485;PMS5003;71262;-25.924;28.194;2023-11-21T08:50:08;18;17;
55485;PMS5003;71262;-25.924;28.194;2023-11-21T08:52:33;17;16;
55485;PMS5003;71262;-25.924;28.194;2023-11-21T08:54:58;13;12;
55485;PMS5003;71262;-25.924;28.194;2023-11-21T08:57:23;16;15;
55485;PMS5003;71262;-25.924;28.194;2023-11-21T08:59:49;14;14;
55485;PMS5003;71262;-25.924;28.194;2023-11-21T09:02:14;18;18;
55485;PMS5003;71262;-25.924;28.194;2023-11-21T09:04:39;35;35;
55485;PMS5003;71262;-25.924;28.194;2023-11-21T09:07:04;54;54;
55485;PMS5003;71262;-25.924;28.194;2023-11-21T09:09:29;33;33;
55485;PMS5003;71262;-25.924;28.194;2023-11-21T09:11:54;28;28;
55485;PMS5003;71262;-25.924;28.194;2023-11-21T09:14:19;9;9;
55485;PMS5003;71262;-25.924;28.194;2023-11-21T09:16:44;9;8;
55485;PMS5003;71262;-25.924;28.194;2023-11-21T09:19:09;4;4;
55485;PMS5003;71262;-25.924;28.194;2023-11-21T09:21:34;5;4;
55485;PMS5003;71262;-25.924;28.194;2023-11-21T09:23:59;3;2;
55485;PMS5003;71262;-25.924;28.194;2023-11-21T09:26:25;5;5;
55485;PMS5003;71262;-25.924;28.194;2023-11-21T09:28:50;5;4;
55485;PMS5003;71262;-25.924;28.194;2023-11-21T09:31:15;4;4;
55485;PMS5003;71262;-25.924;28.194;2023-11-21T09:33:40;4;4;
55485;PMS5003;71262;-25.924;28.194;2023-11-21T09:36:05;4;3;
55485;PMS5003;71262;-25.924;28.194;2023-11-21T09:38:30;4;4;
55485;PMS5003;71262;-25.924;28.194;2023-11-21T09:40:55;4;4;
55485;PMS5003;71262;-25.924;28.194;2023-11-21T09:43:20;7;5;
55485;PMS5003;71262;-25.924;28.194;2023-11-21T09:45:45;4;4;
55485;PMS5003;71262;-25.924;28.194;2023-11-21T09:48:10;4;3;
55485;PMS5003;71262;-25.924;28.194;2023-11-21T09:50:35;4;4;
55485;PMS5003;71262;-25.924;28.194;2023-11-21T09:53:05;3;3;
55485;PMS5003;71262;-25.924;28.194;2023-11-21T09:55:26;4;4;
55485;PMS5003;71262;-25.924;28.194;2023-11-21T09:57:50;6;4;
55485;PMS5003;71262;-25.924;28.194;2023-11-21T10:00:15;3;3;
55485;PMS5003;71262;-25.924;28.194;2023-11-21T10:02:41;5;4;
55485;PMS5003;71262;-25.924;28.194;2023-11-21T10:05:06;3;3;
55485;PMS5003;71262;-25.924;28.194;2023-11-21T10:07:30;4;4;
55485;PMS5003;71262;-25.924;28.194;2023-11-21T10:09:55;5;4;
55485;PMS5003;71262;-25.924;28.194;2023-11-21T10:12:21;5;5;
55485;PMS5003;71262;-25.924;28.194;2023-11-21T10:14:46;6;6;
55485;PMS5003;71262;-25.924;28.194;2023-11-21T10:17:11;3;3;
55485;PMS5003;71262;-25.924;28.194;2023-11-21T10:19:36;5;5;
55485;PMS5003;71262;-25.924;28.194;2023-11-21T10:22:01;4;3;
55485;PMS5003;71262;-25.924;28.194;2023-11-21T10:24:26;5;5;
55485;PMS5003;71262;-25.924;28.194;2023-11-21T10:26:51;2;2;
55485;PMS5003;71262;-25.924;28.194;2023-11-21T10:29:16;5;3;
55485;PMS5003;71262;-25.924;28.194;2023-11-21T10:31:41;4;4;
55485;PMS5003;71262;-25.924;28.194;2023-11-21T10:36:31;4;4;
55485;PMS5003;71262;-25.924;28.194;2023-11-21T10:38:56;4;3;
55485;PMS5003;71262;-25.924;28.194;2023-11-21T10:41:21;4;4;
55485;PMS5003;71262;-25.924;28.194;2023-11-21T10:43:46;6;4;
55485;PMS5003;71262;-25.924;28.194;2023-11-21T10:46:11;6;5;
55485;PMS5003;71262;-25.924;28.194;2023-11-21T10:48:36;5;5;
55485;PMS5003;71262;-25.924;28.194;2023-11-21T10:51:01;5;5;
55485;PMS5003;71262;-25.924;28.194;2023-11-21T10:53:28;4;4;
55485;PMS5003;71262;-25.924;28.194;2023-11-21T10:55:54;4;4;
55485;PMS5003;71262;-25.924;28.194;2023-11-21T10:58:16;6;5;
55485;PMS5003;71262;-25.924;28.194;2023-11-21T11:00:42;6;5;
55485;PMS5003;71262;-25.924;28.194;2023-11-21T11:03:07;5;4;
55485;PMS5003;71262;-25.924;28.194;2023-11-21T11:05:32;6;6;
55485;PMS5003;71262;-25.924;28.194;2023-11-21T11:07:58;7;6;
55485;PMS5003;71262;-25.924;28.194;2023-11-21T11:10:22;5;5;
55485;PMS5003;71262;-25.924;28.194;2023-11-21T11:12:47;6;6;
55485;PMS5003;71262;-25.924;28.194;2023-11-21T11:15:12;6;6;
55485;PMS5003;71262;-25.924;28.194;2023-11-21T11:17:37;5;5;
55485;PMS5003;71262;-25.924;28.194;2023-11-21T11:20:02;5;5;
55485;PMS5003;71262;-25.924;28.194;2023-11-21T11:22:29;6;6;
55485;PMS5003;71262;-25.924;28.194;2023-11-21T11:24:58;6;6;
55485;PMS5003;71262;-25.924;28.194;2023-11-21T11:27:20;8;6;
55485;PMS5003;71262;-25.924;28.194;2023-11-21T11:29:46;5;5;
55485;PMS5003;71262;-25.924;28.194;2023-11-21T11:32:10;5;5;
55485;PMS5003;71262;-25.924;28.194;2023-11-21T11:34:33;7;6;
55485;PMS5003;71262;-25.924;28.194;2023-11-21T11:37:00;15;15;
55485;PMS5003;71262;-25.924;28.194;2023-11-21T11:41:47;6;6;
55485;PMS5003;71262;-25.924;28.194;2023-11-21T11:46:41;5;5;
55485;PMS5003;71262;-25.924;28.194;2023-11-21T11:49:02;6;5;
55485;PMS5003;71262;-25.924;28.194;2023-11-21T11:51:28;7;7;
55485;PMS5003;71262;-25.924;28.194;2023-11-21T11:53:53;7;7;
55485;PMS5003;71262;-25.924;28.194;2023-11-21T11:58:43;7;7;
55485;PMS5003;71262;-25.924;28.194;2023-11-21T12:01:08;7;7;
55485;PMS5003;71262;-25.924;28.194;2023-11-21T12:03:33;9;9;
55485;PMS5003;71262;-25.924;28.194;2023-11-21T12:05:58;10;10;
55485;PMS5003;71262;-25.924;28.194;2023-11-21T12:08:23;11;10;
55485;PMS5003;71262;-25.924;28.194;2023-11-21T12:10:48;10;10;
55485;PMS5003;71262;-25.924;28.194;2023-11-21T12:13:13;13;13;
55485;PMS5003;71262;-25.924;28.194;2023-11-21T12:15:38;14;14;
55485;PMS5003;71262;-25.924;28.194;2023-11-21T12:18:04;27;27;
55485;PMS5003;71262;-25.924;28.194;2023-11-21T12:20:29;42;41;
55485;PMS5003;71262;-25.924;28.194;2023-11-21T12:22:54;53;51;
55485;PMS5003;71262;-25.924;28.194;2023-11-21T12:25:19;32;32;
55485;PMS5003;71262;-25.924;28.194;2023-11-21T12:27:44;31;30;
55485;PMS5003;71262;-25.924;28.194;2023-11-21T12:30:09;42;41;
55485;PMS5003;71262;-25.924;28.194;2023-11-21T12:32:34;45;45;
55485;PMS5003;71262;-25.924;28.194;2023-11-21T12:34:59;37;36;
55485;PMS5003;71262;-25.924;28.194;2023-11-21T12:37:24;24;24;
55485;PMS5003;71262;-25.924;28.194;2023-11-21T12:39:49;18;18;
55485;PMS5003;71262;-25.924;28.194;2023-11-21T12:42:14;19;16;
55485;PMS5003;71262;-25.924;28.194;2023-11-21T12:44:40;21;19;
55485;PMS5003;71262;-25.924;28.194;2023-11-21T12:47:05;16;16;
55485;PMS5003;71262;-25.924;28.194;2023-11-21T12:49:30;15;15;
55485;PMS5003;71262;-25.924;28.194;2023-11-21T12:51:55;14;13;
55485;PMS5003;71262;-25.924;28.194;2023-11-21T12:54:20;13;13;
55485;PMS5003;71262;-25.924;28.194;2023-11-21T12:56:45;14;14;
55485;PMS5003;71262;-25.924;28.194;2023-11-21T12:59:10;14;14;
55485;PMS5003;71262;-25.924;28.194;2023-11-21T13:01:35;20;19;
55485;PMS5003;71262;-25.924;28.194;2023-11-21T13:04:00;25;23;
55485;PMS5003;71262;-25.924;28.194;2023-11-21T13:06:25;42;42;
55485;PMS5003;71262;-25.924;28.194;2023-11-21T13:08:51;33;33;
55485;PMS5003;71262;-25.924;28.194;2023-11-21T13:11:16;29;29;
55485;PMS5003;71262;-25.924;28.194;2023-11-21T13:13:41;20;19;
55485;PMS5003;71262;-25.924;28.194;2023-11-21T13:16:06;14;13;
55485;PMS5003;71262;-25.924;28.194;2023-11-21T13:18:31;19;19;
55485;PMS5003;71262;-25.924;28.194;2023-11-21T13:20:57;11;11;
55485;PMS5003;71262;-25.924;28.194;2023-11-21T13:23:22;16;12;
55485;PMS5003;71262;-25.924;28.194;2023-11-21T13:25:47;9;9;
55485;PMS5003;71262;-25.924;28.194;2023-11-21T13:28:12;6;6;
55485;PMS5003;71262;-25.924;28.194;2023-11-21T13:30:37;11;10;
55485;PMS5003;71262;-25.924;28.194;2023-11-21T13:33:03;16;16;
55485;PMS5003;71262;-25.924;28.194;2023-11-21T13:35:27;10;10;
55485;PMS5003;71262;-25.924;28.194;2023-11-21T13:37:53;9;9;
55485;PMS5003;71262;-25.924;28.194;2023-11-21T13:40:20;8;8;
55485;PMS5003;71262;-25.924;28.194;2023-11-21T13:42:43;7;7;
55485;PMS5003;71262;-25.924;28.194;2023-11-21T13:45:09;9;9;
55485;PMS5003;71262;-25.924;28.194;2023-11-21T13:47:33;10;10;
55485;PMS5003;71262;-25.924;28.194;2023-11-21T13:49:59;10;7;
55485;PMS5003;71262;-25.924;28.194;2023-11-21T13:52:24;7;7;
55485;PMS5003;71262;-25.924;28.194;2023-11-21T13:54:50;7;6;
55485;PMS5003;71262;-25.924;28.194;2023-11-21T13:57:14;11;8;
55485;PMS5003;71262;-25.924;28.194;2023-11-21T13:59:39;8;8;
55485;PMS5003;71262;-25.924;28.194;2023-11-21T14:02:04;5;5;
55485;PMS5003;71262;-25.924;28.194;2023-11-21T14:04:29;6;6;
55485;PMS5003;71262;-25.924;28.194;2023-11-21T14:06:54;6;5;
55485;PMS5003;71262;-25.924;28.194;2023-11-21T14:09:20;4;4;
55485;PMS5003;71262;-25.924;28.194;2023-11-21T14:11:44;6;6;
55485;PMS5003;71262;-25.924;28.194;2023-11-21T14:14:09;7;7;
55485;PMS5003;71262;-25.924;28.194;2023-11-21T14:16:34;8;7;
55485;PMS5003;71262;-25.924;28.194;2023-11-21T14:18:59;6;6;
55485;PMS5003;71262;-25.924;28.194;2023-11-21T14:21:25;6;6;
55485;PMS5003;71262;-25.924;28.194;2023-11-21T14:23:50;6;6;
55485;PMS5003;71262;-25.924;28.194;2023-11-21T14:26:15;9;7;
55485;PMS5003;71262;-25.924;28.194;2023-11-21T14:28:40;6;6;
55485;PMS5003;71262;-25.924;28.194;2023-11-21T14:31:05;5;5;
55485;PMS5003;71262;-25.924;28.194;2023-11-21T14:33:30;6;5;
55485;PMS5003;71262;-25.924;28.194;2023-11-21T14:35:55;5;4;
55485;PMS5003;71262;-25.924;28.194;2023-11-21T14:38:20;6;6;
55485;PMS5003;71262;-25.924;28.194;2023-11-21T14:40:45;5;5;
55485;PMS5003;71262;-25.924;28.194;2023-11-21T14:43:10;6;6;
55485;PMS5003;71262;-25.924;28.194;2023-11-21T14:45:35;4;4;
55485;PMS5003;71262;-25.924;28.194;2023-11-21T14:48:01;6;5;
55485;PMS5003;71262;-25.924;28.194;2023-11-21T14:50:26;5;4;
55485;PMS5003;71262;-25.924;28.194;2023-11-21T14:52:51;5;5;
55485;PMS5003;71262;-25.924;28.194;2023-11-21T14:55:17;5;5;
55485;PMS5003;71262;-25.924;28.194;2023-11-21T14:57:42;6;6;
55485;PMS5003;71262;-25.924;28.194;2023-11-21T15:00:07;6;5;
55485;PMS5003;71262;-25.924;28.194;2023-11-21T15:02:32;6;5;
55485;PMS5003;71262;-25.924;28.194;2023-11-21T15:04:57;5;5;
55485;PMS5003;71262;-25.924;28.194;2023-11-21T15:07:22;5;5;
55485;PMS5003;71262;-25.924;28.194;2023-11-21T15:09:48;6;6;
55485;PMS5003;71262;-25.924;28.194;2023-11-21T15:12:13;6;5;
55485;PMS5003;71262;-25.924;28.194;2023-11-21T15:14:38;6;5;
55485;PMS5003;71262;-25.924;28.194;2023-11-21T15:17:03;5;3;
55485;PMS5003;71262;-25.924;28.194;2023-11-21T15:19:28;6;5;
55485;PMS5003;71262;-25.924;28.194;2023-11-21T15:21:53;6;6;
55485;PMS5003;71262;-25.924;28.194;2023-11-21T15:24:18;6;6;
55485;PMS5003;71262;-25.924;28.194;2023-11-21T15:26:43;6;6;
55485;PMS5003;71262;-25.924;28.194;2023-11-21T15:29:08;8;6;
55485;PMS5003;71262;-25.924;28.194;2023-11-21T15:31:34;8;8;
55485;PMS5003;71262;-25.924;28.194;2023-11-21T15:33:59;11;11;
55485;PMS5003;71262;-25.924;28.194;2023-11-21T15:36:24;13;13;
55485;PMS5003;71262;-25.924;28.194;2023-11-21T15:38:50;20;18;
55485;PMS5003;71262;-25.924;28.194;2023-11-21T15:41:14;22;19;
55485;PMS5003;71262;-25.924;28.194;2023-11-21T15:43:39;20;18;
55485;PMS5003;71262;-25.924;28.194;2023-11-21T15:46:05;21;19;
55485;PMS5003;71262;-25.924;28.194;2023-11-21T15:48:31;20;19;
55485;PMS5003;71262;-25.924;28.194;2023-11-21T15:50:56;17;16;
55485;PMS5003;71262;-25.924;28.194;2023-11-21T15:53:21;18;18;
55485;PMS5003;71262;-25.924;28.194;2023-11-21T15:55:47;17;17;
55485;PMS5003;71262;-25.924;28.194;2023-11-21T15:58:13;19;18;
55485;PMS5003;71262;-25.924;28.194;2023-11-21T16:00:38;20;18;
55485;PMS5003;71262;-25.924;28.194;2023-11-21T16:03:04;19;19;
55485;PMS5003;71262;-25.924;28.194;2023-11-21T16:05:30;18;17;
55485;PMS5003;71262;-25.924;28.194;2023-11-21T16:07:55;20;19;